Página principal
METAR-TAF:

METAR-TAF

Aeroportos :

Fuerteventura, Espanha

latitude: 28-27N, longitude: 013-52W, altura: 22 m

Observação actual do tempo

O boletim foi feito há 51 minutos, às 05:00 UTC
Vento 12 kt de norte
Temperatura 20°C
Humidade 73%
Pressão 1014 hPa
Visibilidade 10 km ou mais
Nuvens dispersasa uma altura de 2200 ft

METAR: GCFV 230500Z 35012KT 9999 SCT022 20/15 Q1014

Hora: 06:51 (05:51 UTC)

Previsão

O boletim foi feito há 3 horas e 51 minutos, às 02:00 UTC
Previsão válida de 23 às 03 UTC a 24 às 03 UTC
Vento 15 kt de norte
Visibilidade 10 km ou mais
Nuvens fragmentadasa uma altura de 3000 ft

TAF: GCFV 230200Z 2303/2403 01015KT 9999 BKN030 TX26/2314Z TN19/2306Z

Observações e previsões do tempo de mais de 4000 aeroportos (mensagens METAR e TAF).

As estações disponíveis são os pontos amarelos e vermelhos sobre o mapa.

Mova o rato sobre o mapa para ver o nome da estação.

Depois clique no ponto para visualizar as observações e previsões meteorológicas.

Para alterar o mapa : clique nos botões verdes com uma cruz preta para aumentar o zoom; no botão verde com uma pitada de zoom; ou nas setas verdes para mapas adjacentes.


METAR-TAF: